createdAt,value
2018-06-14T00:01:13.440Z,11.30
2018-06-14T00:05:16.935Z,11.00
2018-06-14T00:09:20.458Z,10.90
2018-06-14T00:13:23.973Z,10.80
2018-06-14T00:17:27.729Z,10.70
2018-06-14T00:21:31.271Z,10.70
2018-06-14T00:25:34.815Z,10.70
2018-06-14T00:29:38.430Z,10.70
2018-06-14T00:33:42.291Z,10.60
2018-06-14T00:37:45.794Z,10.60
2018-06-14T00:41:49.488Z,10.60
2018-06-14T00:45:53.002Z,10.50
2018-06-14T00:49:56.652Z,10.40
2018-06-14T00:54:00.158Z,10.40
2018-06-14T00:58:09.131Z,10.70
2018-06-14T01:02:12.758Z,10.50
2018-06-14T01:06:16.291Z,10.40
2018-06-14T01:10:19.872Z,10.30
2018-06-14T01:14:23.563Z,10.20
2018-06-14T01:18:27.254Z,10.30
2018-06-14T01:22:30.943Z,10.40
2018-06-14T01:26:34.482Z,10.20
2018-06-14T01:30:38.220Z,10.20
2018-06-14T01:34:43.081Z,10.30
2018-06-14T01:38:46.715Z,10.20
2018-06-14T01:42:50.207Z,10.00
2018-06-14T01:46:54.043Z,10.10
2018-06-14T01:50:57.818Z,10.00
2018-06-14T01:55:02.513Z,9.80
2018-06-14T01:59:06.613Z,9.70
2018-06-14T02:03:10.446Z,9.60
2018-06-14T02:07:14.081Z,9.70
2018-06-14T02:11:17.983Z,9.70
2018-06-14T02:15:21.534Z,9.80
2018-06-14T02:19:25.297Z,9.90
2018-06-14T02:23:29.168Z,9.80
2018-06-14T02:27:32.824Z,9.70
2018-06-14T02:31:36.412Z,9.60
2018-06-14T02:35:40.523Z,9.60
2018-06-14T02:39:44.187Z,9.50
2018-06-14T02:43:47.757Z,9.30
2018-06-14T02:47:51.251Z,9.40
2018-06-14T02:51:54.819Z,9.30
2018-06-14T02:56:08.257Z,9.30
2018-06-14T03:00:12.593Z,9.40
2018-06-14T03:04:16.110Z,9.20
2018-06-14T03:08:19.711Z,9.10
2018-06-14T03:12:23.231Z,9.10
2018-06-14T03:16:27.089Z,9.00
2018-06-14T03:20:30.564Z,8.90
2018-06-14T03:24:34.358Z,8.80
2018-06-14T03:28:37.903Z,8.90
2018-06-14T03:32:51.894Z,9.00
2018-06-14T03:36:55.490Z,9.00
2018-06-14T03:40:59.255Z,8.90
2018-06-14T03:45:02.755Z,8.90
2018-06-14T03:49:06.610Z,9.10
2018-06-14T03:53:12.454Z,9.10
2018-06-14T03:57:16.730Z,9.10
2018-06-14T04:01:20.238Z,9.20
2018-06-14T04:05:24.006Z,9.50
2018-06-14T04:09:27.503Z,9.50
2018-06-14T04:13:31.296Z,9.50
2018-06-14T04:17:34.967Z,9.50
2018-06-14T04:21:38.557Z,9.60
2018-06-14T04:25:42.037Z,9.90
2018-06-14T04:29:45.970Z,9.90
2018-06-14T04:33:49.574Z,10.00
2018-06-14T04:37:59.373Z,10.00
2018-06-14T04:42:02.903Z,10.10
2018-06-14T04:46:06.707Z,10.00
2018-06-14T04:50:10.183Z,10.00
2018-06-14T04:54:13.879Z,10.20
2018-06-14T04:58:17.658Z,10.60
2018-06-14T05:02:32.180Z,11.00
2018-06-14T05:06:35.723Z,11.20
2018-06-14T05:10:39.266Z,10.80
2018-06-14T05:14:42.906Z,10.80
2018-06-14T05:18:46.908Z,10.80
2018-06-14T05:22:50.639Z,11.00
2018-06-14T05:26:54.183Z,11.20
2018-06-14T05:30:57.688Z,11.30
2018-06-14T05:35:01.638Z,11.50
2018-06-14T05:39:08.630Z,11.70
2018-06-14T05:47:15.577Z,11.80
2018-06-14T05:51:19.535Z,12.10
2018-06-14T05:55:23.231Z,12.80
2018-06-14T05:59:26.867Z,13.20
2018-06-14T06:03:31.538Z,13.80
2018-06-14T06:07:36.539Z,14.50
2018-06-14T06:11:40.471Z,14.90
2018-06-14T06:15:44.403Z,15.70
2018-06-14T06:19:48.194Z,16.10
2018-06-14T06:23:52.175Z,16.90
2018-06-14T06:27:55.835Z,17.30
2018-06-14T06:32:00.463Z,18.00
2018-06-14T06:40:07.574Z,18.70
2018-06-14T06:44:11.295Z,19.40
2018-06-14T06:48:15.217Z,20.10
2018-06-14T06:52:18.948Z,21.10
2018-06-14T06:56:23.055Z,21.90
2018-06-14T07:00:26.567Z,22.50
2018-06-14T07:04:32.578Z,23.10
2018-06-14T07:08:36.161Z,23.80
2018-06-14T07:12:39.916Z,24.50
2018-06-14T07:16:43.780Z,24.60
2018-06-14T07:20:47.554Z,24.80
2018-06-14T07:24:51.229Z,24.40
2018-06-14T07:28:55.987Z,24.70
2018-06-14T07:32:59.478Z,25.00
2018-06-14T07:37:04.779Z,25.10
2018-06-14T07:41:09.371Z,25.50
2018-06-14T07:45:13.595Z,25.30
2018-06-14T07:49:17.572Z,26.00
2018-06-14T07:53:23.095Z,25.90
2018-06-14T07:57:26.627Z,25.00
2018-06-14T08:01:31.787Z,24.80
2018-06-14T08:05:35.370Z,25.60
2018-06-14T08:09:39.278Z,25.30
2018-06-14T08:13:42.852Z,25.90
2018-06-14T08:17:46.895Z,25.60
2018-06-14T08:21:50.438Z,26.00
2018-06-14T08:25:54.054Z,26.40
2018-06-14T08:29:58.700Z,26.80
2018-06-14T08:34:02.617Z,25.10
2018-06-14T08:38:06.198Z,25.50
2018-06-14T08:42:10.718Z,25.50
2018-06-14T08:46:14.444Z,25.20
2018-06-14T08:50:18.105Z,25.60
2018-06-14T08:54:21.913Z,25.10
2018-06-14T08:58:25.618Z,24.30
2018-06-14T09:02:29.154Z,24.50
2018-06-14T09:10:37.119Z,23.30
2018-06-14T09:14:41.283Z,24.00
2018-06-14T09:18:45.100Z,25.50
2018-06-14T09:22:49.125Z,25.40
2018-06-14T09:26:52.664Z,23.00
2018-06-14T09:30:56.490Z,22.80
2018-06-14T09:35:10.731Z,23.90
2018-06-14T09:39:14.936Z,25.20
2018-06-14T09:43:18.821Z,25.40
2018-06-14T09:47:22.599Z,25.50
2018-06-14T09:51:26.091Z,25.00
2018-06-14T09:55:29.943Z,25.00
2018-06-14T09:59:33.430Z,25.50
2018-06-14T10:03:37.132Z,25.90
2018-06-14T10:07:40.810Z,25.40
2018-06-14T10:11:46.903Z,24.90
2018-06-14T10:15:51.142Z,25.10
2018-06-14T10:19:55.252Z,25.10
2018-06-14T10:23:58.750Z,24.60
2018-06-14T10:28:08.015Z,24.10
2018-06-14T10:32:11.730Z,23.90
2018-06-14T10:36:16.931Z,23.80
2018-06-14T10:40:22.563Z,24.10
2018-06-14T10:44:26.319Z,25.00
2018-06-14T10:48:29.891Z,25.10
2018-06-14T10:52:33.720Z,24.30
2018-06-14T10:56:37.684Z,23.80
2018-06-14T11:00:41.975Z,24.20
2018-06-14T11:04:45.970Z,24.30
2018-06-14T11:08:49.998Z,24.40
2018-06-14T11:12:54.178Z,24.20
2018-06-14T11:16:57.915Z,24.40
2018-06-14T11:21:01.558Z,24.20
2018-06-14T11:25:05.723Z,23.80
2018-06-14T11:33:13.929Z,24.40
2018-06-14T11:37:17.791Z,24.00
2018-06-14T11:41:21.574Z,24.20
2018-06-14T11:45:25.310Z,24.00
2018-06-14T11:49:30.033Z,23.90
2018-06-14T11:53:33.802Z,23.60
2018-06-14T11:57:37.702Z,23.20
2018-06-14T12:01:45.604Z,23.30
2018-06-14T12:05:50.247Z,23.30
2018-06-14T12:10:01.277Z,23.00
2018-06-14T12:14:05.137Z,23.10
2018-06-14T12:18:09.358Z,23.40
2018-06-14T12:22:14.643Z,23.50
2018-06-14T12:26:19.540Z,23.40
2018-06-14T12:30:23.753Z,23.30
2018-06-14T12:34:27.397Z,23.00
2018-06-14T12:38:30.982Z,23.00
2018-06-14T12:42:34.968Z,23.20
2018-06-14T12:46:38.819Z,23.20
2018-06-14T12:54:47.024Z,22.90
2018-06-14T12:58:51.172Z,22.90
2018-06-14T13:02:55.067Z,23.00
2018-06-14T13:06:58.639Z,23.00
2018-06-14T13:11:02.254Z,23.10
2018-06-14T13:15:07.061Z,23.10
2018-06-14T13:19:10.735Z,23.20
2018-06-14T13:23:14.836Z,23.10
2018-06-14T13:27:18.890Z,23.10
2018-06-14T13:31:23.055Z,23.00
2018-06-14T13:35:26.892Z,22.80
2018-06-14T13:39:30.414Z,22.70
2018-06-14T13:43:34.135Z,22.60
2018-06-14T13:47:38.702Z,22.50
2018-06-14T13:51:42.295Z,22.70
2018-06-14T13:55:47.016Z,22.90
2018-06-14T13:59:51.595Z,23.00
2018-06-14T14:03:55.087Z,22.90
2018-06-14T14:07:58.798Z,22.70
2018-06-14T14:12:02.328Z,22.80
2018-06-14T14:16:12.473Z,22.80
2018-06-14T14:20:17.161Z,22.90
2018-06-14T14:24:22.346Z,22.90
2018-06-14T14:28:27.992Z,22.90
2018-06-14T14:32:31.686Z,22.60
2018-06-14T14:36:35.172Z,22.40
2018-06-14T14:40:38.866Z,22.30
2018-06-14T14:44:42.516Z,22.20
2018-06-14T14:48:46.816Z,22.20
2018-06-14T14:52:50.318Z,22.40
2018-06-14T14:56:53.904Z,22.40
2018-06-14T15:00:59.450Z,22.50
2018-06-14T15:05:03.182Z,22.50
2018-06-14T15:09:10.426Z,22.60
2018-06-14T15:13:14.283Z,22.60
2018-06-14T15:17:18.011Z,22.50
2018-06-14T15:21:21.928Z,22.30
2018-06-14T15:25:25.494Z,22.20
2018-06-14T15:29:29.242Z,22.10
2018-06-14T15:33:32.959Z,22.00
2018-06-14T15:37:36.567Z,22.10
2018-06-14T15:41:40.080Z,22.10
2018-06-14T15:45:47.213Z,22.10
2018-06-14T15:50:04.114Z,22.20
2018-06-14T15:54:07.905Z,22.40
2018-06-14T15:58:12.740Z,22.40
2018-06-14T16:02:16.543Z,22.30
2018-06-14T16:06:21.094Z,22.20
2018-06-14T16:10:26.734Z,22.10
2018-06-14T16:14:30.319Z,22.00
2018-06-14T16:18:34.295Z,21.90
2018-06-14T16:22:37.815Z,21.80
2018-06-14T16:26:41.572Z,21.80
2018-06-14T16:30:45.421Z,21.80
2018-06-14T16:34:51.998Z,21.70
2018-06-14T16:38:55.590Z,21.50
2018-06-14T16:43:01.253Z,21.40
2018-06-14T16:47:04.793Z,21.40
2018-06-14T16:59:16.611Z,21.40
2018-06-14T17:03:20.821Z,21.40
2018-06-14T17:07:27.410Z,21.30
2018-06-14T17:11:31.043Z,21.20
2018-06-14T17:15:35.649Z,21.10
2018-06-14T17:19:39.261Z,21.00
2018-06-14T17:23:45.242Z,20.90
2018-06-14T17:27:49.881Z,20.80
2018-06-14T17:31:53.541Z,20.80
2018-06-14T17:35:57.132Z,20.80
2018-06-14T17:40:04.691Z,20.70
2018-06-14T17:44:17.755Z,20.60
2018-06-14T17:48:24.054Z,20.60
2018-06-14T17:52:27.802Z,20.50
2018-06-14T17:56:31.524Z,20.40
2018-06-14T18:00:35.111Z,20.40
2018-06-14T18:04:44.450Z,20.30
2018-06-14T18:08:50.007Z,20.30
2018-06-14T18:12:54.735Z,20.20
2018-06-14T18:16:59.310Z,20.20
2018-06-14T18:21:06.405Z,20.10
2018-06-14T18:29:15.054Z,19.90
2018-06-14T18:33:24.095Z,20.00
2018-06-14T18:37:29.847Z,19.70
2018-06-14T18:41:35.622Z,19.40
2018-06-14T18:45:42.696Z,19.20
2018-06-14T18:49:47.984Z,19.20
2018-06-14T18:58:02.393Z,19.00
2018-06-14T19:02:06.314Z,18.80
2018-06-14T19:06:09.869Z,18.70
2018-06-14T19:10:14.913Z,18.60
2018-06-14T19:14:18.758Z,18.70
2018-06-14T19:18:22.485Z,18.60
2018-06-14T19:22:25.978Z,18.70
2018-06-14T19:26:29.982Z,18.60
2018-06-14T19:30:34.522Z,18.60
2018-06-14T19:34:38.136Z,18.50
2018-06-14T19:38:45.734Z,18.40
2018-06-14T19:42:50.112Z,18.30
2018-06-14T19:46:53.985Z,18.00
2018-06-14T19:55:06.966Z,17.60
2018-06-14T19:59:10.506Z,17.50
2018-06-14T20:03:14.349Z,17.60
2018-06-14T20:07:18.174Z,17.80
2018-06-14T20:11:21.766Z,17.80
2018-06-14T20:15:25.622Z,17.80
2018-06-14T20:19:29.148Z,17.80
2018-06-14T20:23:33.012Z,17.70
2018-06-14T20:27:36.516Z,17.50
2018-06-14T20:31:40.059Z,17.40
2018-06-14T20:35:43.935Z,17.30
2018-06-14T20:39:50.215Z,17.40
2018-06-14T20:43:55.887Z,17.50
2018-06-14T20:52:03.089Z,17.40
2018-06-14T20:56:08.974Z,17.30
2018-06-14T21:00:13.572Z,17.40
2018-06-14T21:04:17.949Z,17.30
2018-06-14T21:08:21.886Z,17.30
2018-06-14T21:12:25.470Z,17.30
2018-06-14T21:16:29.031Z,17.20
2018-06-14T21:20:32.740Z,17.20
2018-06-14T21:24:36.306Z,17.20
2018-06-14T21:28:39.866Z,17.10
2018-06-14T21:32:44.219Z,17.00
2018-06-14T21:36:48.678Z,17.00
2018-06-14T21:40:52.279Z,17.10
2018-06-14T21:44:56.093Z,16.90
2018-06-14T21:48:59.648Z,16.90
2018-06-14T21:53:03.267Z,16.90
2018-06-14T21:57:07.058Z,16.90
2018-06-14T22:01:12.274Z,16.80
2018-06-14T22:05:17.318Z,16.80
2018-06-14T22:09:20.951Z,16.70
2018-06-14T22:17:28.294Z,16.70
2018-06-14T22:21:31.836Z,16.70
2018-06-14T22:25:35.876Z,16.70
2018-06-14T22:29:39.609Z,16.70
2018-06-14T22:33:54.227Z,16.70
2018-06-14T22:37:57.870Z,16.70
2018-06-14T22:42:01.523Z,16.70
2018-06-14T22:46:05.735Z,16.70
2018-06-14T22:50:09.383Z,16.60
2018-06-14T22:54:14.121Z,16.60
2018-06-14T22:58:18.126Z,16.60
2018-06-14T23:02:21.715Z,16.60
2018-06-14T23:06:25.315Z,16.50
2018-06-14T23:10:40.916Z,16.40
2018-06-14T23:14:45.812Z,16.50
2018-06-14T23:18:49.561Z,16.40
2018-06-14T23:22:54.525Z,16.40
2018-06-14T23:27:04.664Z,16.40
2018-06-14T23:31:08.435Z,16.30
2018-06-14T23:35:12.024Z,16.30
2018-06-14T23:39:16.450Z,16.30
2018-06-14T23:43:20.122Z,16.20
2018-06-14T23:47:23.826Z,16.30
2018-06-14T23:51:27.300Z,16.30
2018-06-14T23:55:30.954Z,16.30
2018-06-14T23:59:34.706Z,16.30
